sensor_id;sensor_type;location;lat;lon;timestamp;P1;P4;P2;P0;N10;N4;N25;N1;N05;TS
78734;SPS30;68057;52.126;5.426;2023-11-19T00:01:52;6.18;6.18;6.18;5.84;46.66;46.65;46.64;46.47;40.40;0.44
78734;SPS30;68057;52.126;5.426;2023-11-19T00:04:19;6.27;6.27;6.27;5.93;47.31;47.30;47.29;47.11;40.96;0.43
78734;SPS30;68057;52.126;5.426;2023-11-19T00:06:46;6.12;6.12;6.12;5.79;46.21;46.20;46.19;46.02;40.01;0.39
78734;SPS30;68057;52.126;5.426;2023-11-19T00:09:12;5.52;5.52;5.52;5.22;41.70;41.69;41.68;41.53;36.10;0.41
78734;SPS30;68057;52.126;5.426;2023-11-19T00:11:39;5.51;5.51;5.51;5.21;41.63;41.62;41.61;41.46;36.04;0.42
78734;SPS30;68057;52.126;5.426;2023-11-19T00:14:06;5.99;5.99;5.99;5.67;45.25;45.25;45.24;45.07;39.18;0.42
78734;SPS30;68057;52.126;5.426;2023-11-19T00:16:35;5.85;5.85;5.85;5.53;44.13;44.12;44.12;43.95;38.21;0.41
78734;SPS30;68057;52.126;5.426;2023-11-19T00:19:01;5.92;5.92;5.92;5.59;44.66;44.65;44.65;44.48;38.67;0.41
78734;SPS30;68057;52.126;5.426;2023-11-19T00:21:30;5.43;5.43;5.43;5.13;40.96;40.96;40.95;40.80;35.47;0.44
78734;SPS30;68057;52.126;5.426;2023-11-19T00:23:59;5.57;5.57;5.57;5.27;42.04;42.03;42.02;41.87;36.40;0.41
78734;SPS30;68057;52.126;5.426;2023-11-19T00:26:26;5.68;5.68;5.68;5.37;42.89;42.88;42.87;42.71;37.13;0.43
78734;SPS30;68057;52.126;5.426;2023-11-19T00:28:52;4.63;4.63;4.63;4.38;34.93;34.93;34.92;34.79;30.25;0.44
78734;SPS30;68057;52.126;5.426;2023-11-19T00:31:19;4.55;4.51;4.43;4.10;32.71;32.70;32.67;32.45;28.04;0.47
78734;SPS30;68057;52.126;5.426;2023-11-19T00:33:46;5.32;5.20;4.93;4.37;34.92;34.90;34.82;34.37;29.34;0.51
78734;SPS30;68057;52.126;5.426;2023-11-19T00:36:16;5.41;5.27;4.98;4.39;35.08;35.05;34.97;34.49;29.40;0.50
78734;SPS30;68057;52.126;5.426;2023-11-19T00:38:42;5.57;5.43;5.15;4.54;36.32;36.30;36.21;35.73;30.49;0.48
78734;SPS30;68057;52.126;5.426;2023-11-19T00:41:09;4.87;4.86;4.84;4.55;36.34;36.33;36.31;36.15;31.38;0.47
78734;SPS30;68057;52.126;5.426;2023-11-19T00:43:36;4.73;4.72;4.71;4.45;35.49;35.48;35.47;35.33;30.70;0.47
78734;SPS30;68057;52.126;5.426;2023-11-19T00:46:03;4.62;4.61;4.58;4.30;34.30;34.30;34.28;34.12;29.60;0.46
78734;SPS30;68057;52.126;5.426;2023-11-19T00:48:33;5.51;5.31;4.91;4.18;33.44;33.41;33.30;32.67;27.58;0.51
78734;SPS30;68057;52.126;5.426;2023-11-19T00:51:00;5.60;5.37;4.89;4.08;32.67;32.64;32.51;31.79;26.67;0.51
78734;SPS30;68057;52.126;5.426;2023-11-19T00:53:26;5.66;5.40;4.87;3.99;31.96;31.92;31.77;30.99;25.85;0.52
78734;SPS30;68057;52.126;5.426;2023-11-19T00:55:53;5.40;5.18;4.71;3.93;31.41;31.37;31.24;30.55;25.61;0.53
78734;SPS30;68057;52.126;5.426;2023-11-19T00:58:20;6.08;5.81;5.25;4.32;34.59;34.55;34.39;33.56;28.03;0.52
78734;SPS30;68057;52.126;5.426;2023-11-19T01:00:46;5.84;5.52;4.88;3.88;31.08;31.04;30.86;29.94;24.72;0.51
78734;SPS30;68057;52.126;5.426;2023-11-19T01:03:13;6.32;5.95;5.20;4.07;32.56;32.51;32.31;31.25;25.64;0.56
78734;SPS30;68057;52.126;5.426;2023-11-19T01:05:41;5.75;5.40;4.69;3.63;29.09;29.05;28.85;27.86;22.78;0.59
78734;SPS30;68057;52.126;5.426;2023-11-19T01:08:08;6.96;6.50;5.57;4.20;33.66;33.60;33.35;32.06;25.96;0.58
78734;SPS30;68057;52.126;5.426;2023-11-19T01:10:38;6.72;6.26;5.32;3.95;31.69;31.63;31.37;30.08;24.23;0.59
78734;SPS30;68057;52.126;5.426;2023-11-19T01:13:05;8.29;7.75;6.65;5.02;40.26;40.19;39.89;38.36;31.09;0.57
78734;SPS30;68057;52.126;5.426;2023-11-19T01:15:32;28.03;27.10;25.20;21.66;173.22;173.07;172.53;169.52;143.50;0.38
78734;SPS30;68057;52.126;5.426;2023-11-19T01:17:59;24.91;24.65;24.11;22.18;177.17;177.11;176.93;175.60;151.56;0.43
78734;SPS30;68057;52.126;5.426;2023-11-19T01:20:26;0.00;0.00;0.00;0.00;0.01;0.01;0.01;0.01;0.01;0.31
78734;SPS30;68057;52.126;5.426;2023-11-19T01:22:53;0.00;0.00;0.00;0.00;0.00;0.00;0.00;0.00;0.00;0.31
78734;SPS30;68057;52.126;5.426;2023-11-19T01:25:20;0.00;0.00;0.00;0.00;0.00;0.00;0.00;0.00;0.00;0.31
78734;SPS30;68057;52.126;5.426;2023-11-19T01:27:46;0.00;0.00;0.00;0.00;0.00;0.00;0.00;0.00;0.00;0.31
78734;SPS30;68057;52.126;5.426;2023-11-19T01:30:13;0.00;0.00;0.00;0.00;0.00;0.00;0.00;0.00;0.00;0.31
78734;SPS30;68057;52.126;5.426;2023-11-19T01:32:40;0.00;0.00;0.00;0.00;0.00;0.00;0.00;0.00;0.00;0.31
78734;SPS30;68057;52.126;5.426;2023-11-19T01:35:07;0.00;0.00;0.00;0.00;0.00;0.00;0.00;0.00;0.00;0.31
78734;SPS30;68057;52.126;5.426;2023-11-19T01:37:37;0.00;0.00;0.00;0.00;0.00;0.00;0.00;0.00;0.00;0.31
78734;SPS30;68057;52.126;5.426;2023-11-19T01:40:03;0.00;0.00;0.00;0.00;0.00;0.00;0.00;0.00;0.00;0.31
78734;SPS30;68057;52.126;5.426;2023-11-19T01:42:36;0.00;0.00;0.00;0.00;0.00;0.00;0.00;0.00;0.00;0.31
78734;SPS30;68057;52.126;5.426;2023-11-19T01:45:07;0.00;0.00;0.00;0.00;0.00;0.00;0.00;0.00;0.00;0.31
78734;SPS30;68057;52.126;5.426;2023-11-19T01:47:35;0.00;0.00;0.00;0.00;0.00;0.00;0.00;0.00;0.00;0.31
78734;SPS30;68057;52.126;5.426;2023-11-19T01:50:03;0.00;0.00;0.00;0.00;0.00;0.00;0.00;0.00;0.00;0.31
78734;SPS30;68057;52.126;5.426;2023-11-19T01:52:34;0.00;0.00;0.00;0.00;0.00;0.00;0.00;0.00;0.00;0.31
78734;SPS30;68057;52.126;5.426;2023-11-19T01:55:05;0.00;0.00;0.00;0.00;0.00;0.00;0.00;0.00;0.00;0.31
78734;SPS30;68057;52.126;5.426;2023-11-19T01:57:35;0.00;0.00;0.00;0.00;0.00;0.00;0.00;0.00;0.00;0.31
78734;SPS30;68057;52.126;5.426;2023-11-19T02:00:05;0.00;0.00;0.00;0.00;0.00;0.00;0.00;0.00;0.00;0.31
78734;SPS30;68057;52.126;5.426;2023-11-19T02:02:33;0.00;0.00;0.00;0.00;0.00;0.00;0.00;0.00;0.00;0.31
78734;SPS30;68057;52.126;5.426;2023-11-19T02:05:00;0.00;0.00;0.00;0.00;0.00;0.00;0.00;0.00;0.00;0.31
78734;SPS30;68057;52.126;5.426;2023-11-19T02:07:27;0.00;0.00;0.00;0.00;0.00;0.00;0.00;0.00;0.00;0.31
78734;SPS30;68057;52.126;5.426;2023-11-19T02:09:54;0.00;0.00;0.00;0.00;0.00;0.00;0.00;0.00;0.00;0.31
78734;SPS30;68057;52.126;5.426;2023-11-19T02:12:21;0.00;0.00;0.00;0.00;0.00;0.00;0.00;0.00;0.00;0.31
78734;SPS30;68057;52.126;5.426;2023-11-19T02:14:47;0.00;0.00;0.00;0.00;0.00;0.00;0.00;0.00;0.00;0.31
78734;SPS30;68057;52.126;5.426;2023-11-19T02:17:48;0.00;0.00;0.00;0.00;0.00;0.00;0.00;0.00;0.00;0.31
78734;SPS30;68057;52.126;5.426;2023-11-19T02:20:07;0.00;0.00;0.00;0.00;0.00;0.00;0.00;0.00;0.00;0.31
78734;SPS30;68057;52.126;5.426;2023-11-19T02:22:37;0.00;0.00;0.00;0.00;0.00;0.00;0.00;0.00;0.00;0.31
78734;SPS30;68057;52.126;5.426;2023-11-19T02:25:04;0.00;0.00;0.00;0.00;0.00;0.00;0.00;0.00;0.00;0.31
78734;SPS30;68057;52.126;5.426;2023-11-19T02:30:13;0.00;0.00;0.00;0.00;0.00;0.00;0.00;0.00;0.00;0.31
78734;SPS30;68057;52.126;5.426;2023-11-19T02:32:41;0.00;0.00;0.00;0.00;0.00;0.00;0.00;0.00;0.00;0.31
78734;SPS30;68057;52.126;5.426;2023-11-19T02:35:08;0.00;0.00;0.00;0.00;0.00;0.00;0.00;0.00;0.00;0.31
78734;SPS30;68057;52.126;5.426;2023-11-19T02:37:35;0.00;0.00;0.00;0.00;0.00;0.00;0.00;0.00;0.00;0.31
78734;SPS30;68057;52.126;5.426;2023-11-19T02:40:02;0.00;0.00;0.00;0.00;0.00;0.00;0.00;0.00;0.00;0.31
78734;SPS30;68057;52.126;5.426;2023-11-19T02:42:30;0.00;0.00;0.00;0.00;0.00;0.00;0.00;0.00;0.00;0.31
78734;SPS30;68057;52.126;5.426;2023-11-19T02:44:57;0.00;0.00;0.00;0.00;0.00;0.00;0.00;0.00;0.00;0.31
78734;SPS30;68057;52.126;5.426;2023-11-19T02:47:24;0.00;0.00;0.00;0.00;0.00;0.00;0.00;0.00;0.00;0.31
78734;SPS30;68057;52.126;5.426;2023-11-19T02:49:50;0.00;0.00;0.00;0.00;0.00;0.00;0.00;0.00;0.00;0.31
78734;SPS30;68057;52.126;5.426;2023-11-19T02:52:19;0.00;0.00;0.00;0.00;0.00;0.00;0.00;0.00;0.00;0.31
78734;SPS30;68057;52.126;5.426;2023-11-19T02:54:46;0.00;0.00;0.00;0.00;0.00;0.00;0.00;0.00;0.00;0.31
78734;SPS30;68057;52.126;5.426;2023-11-19T02:57:12;0.00;0.00;0.00;0.00;0.00;0.00;0.00;0.00;0.00;0.31
78734;SPS30;68057;52.126;5.426;2023-11-19T02:59:48;0.00;0.00;0.00;0.00;0.00;0.00;0.00;0.00;0.00;0.31
78734;SPS30;68057;52.126;5.426;2023-11-19T03:02:15;0.00;0.00;0.00;0.00;0.00;0.00;0.00;0.00;0.00;0.31
78734;SPS30;68057;52.126;5.426;2023-11-19T03:04:44;0.00;0.00;0.00;0.00;0.00;0.00;0.00;0.00;0.00;0.31
78734;SPS30;68057;52.126;5.426;2023-11-19T03:07:12;0.00;0.00;0.00;0.00;0.00;0.00;0.00;0.00;0.00;0.31
78734;SPS30;68057;52.126;5.426;2023-11-19T03:09:40;0.00;0.00;0.00;0.00;0.00;0.00;0.00;0.00;0.00;0.31
78734;SPS30;68057;52.126;5.426;2023-11-19T03:12:07;0.00;0.00;0.00;0.00;0.00;0.00;0.00;0.00;0.00;0.31
78734;SPS30;68057;52.126;5.426;2023-11-19T03:14:34;0.00;0.00;0.00;0.00;0.00;0.00;0.00;0.00;0.00;0.31
78734;SPS30;68057;52.126;5.426;2023-11-19T03:17:01;0.00;0.00;0.00;0.00;0.00;0.00;0.00;0.00;0.00;0.31
78734;SPS30;68057;52.126;5.426;2023-11-19T03:19:28;0.00;0.00;0.00;0.00;0.00;0.00;0.00;0.00;0.00;0.31
78734;SPS30;68057;52.126;5.426;2023-11-19T03:21:55;0.00;0.00;0.00;0.00;0.00;0.00;0.00;0.00;0.00;0.31
78734;SPS30;68057;52.126;5.426;2023-11-19T03:24:22;0.00;0.00;0.00;0.00;0.00;0.00;0.00;0.00;0.00;0.31
78734;SPS30;68057;52.126;5.426;2023-11-19T03:26:49;0.00;0.00;0.00;0.00;0.00;0.00;0.00;0.00;0.00;0.31
78734;SPS30;68057;52.126;5.426;2023-11-19T03:29:19;0.00;0.00;0.00;0.00;0.00;0.00;0.00;0.00;0.00;0.31
78734;SPS30;68057;52.126;5.426;2023-11-19T03:31:45;0.00;0.00;0.00;0.00;0.00;0.00;0.00;0.00;0.00;0.31
78734;SPS30;68057;52.126;5.426;2023-11-19T03:34:12;0.00;0.00;0.00;0.00;0.00;0.00;0.00;0.00;0.00;0.31
78734;SPS30;68057;52.126;5.426;2023-11-19T03:36:39;0.00;0.00;0.00;0.00;0.00;0.00;0.00;0.00;0.00;0.31
78734;SPS30;68057;52.126;5.426;2023-11-19T03:39:06;0.00;0.00;0.00;0.00;0.00;0.00;0.00;0.00;0.00;0.31
78734;SPS30;68057;52.126;5.426;2023-11-19T03:41:33;0.00;0.00;0.00;0.00;0.00;0.00;0.00;0.00;0.00;0.31
78734;SPS30;68057;52.126;5.426;2023-11-19T03:44:02;0.00;0.00;0.00;0.00;0.00;0.00;0.00;0.00;0.00;0.31
78734;SPS30;68057;52.126;5.426;2023-11-19T03:46:29;0.00;0.00;0.00;0.00;0.00;0.00;0.00;0.00;0.00;0.31
78734;SPS30;68057;52.126;5.426;2023-11-19T03:48:56;0.00;0.00;0.00;0.00;0.00;0.00;0.00;0.00;0.00;0.31
78734;SPS30;68057;52.126;5.426;2023-11-19T03:51:23;0.00;0.00;0.00;0.00;0.00;0.00;0.00;0.00;0.00;0.31
78734;SPS30;68057;52.126;5.426;2023-11-19T03:53:50;0.00;0.00;0.00;0.00;0.00;0.00;0.00;0.00;0.00;0.31
78734;SPS30;68057;52.126;5.426;2023-11-19T03:56:16;0.00;0.00;0.00;0.00;0.00;0.00;0.00;0.00;0.00;0.31
78734;SPS30;68057;52.126;5.426;2023-11-19T03:58:43;0.00;0.00;0.00;0.00;0.00;0.00;0.00;0.00;0.00;0.31
78734;SPS30;68057;52.126;5.426;2023-11-19T04:01:13;0.00;0.00;0.00;0.00;0.00;0.00;0.00;0.00;0.00;0.31
78734;SPS30;68057;52.126;5.426;2023-11-19T04:03:40;0.00;0.00;0.00;0.00;0.00;0.00;0.00;0.00;0.00;0.31
78734;SPS30;68057;52.126;5.426;2023-11-19T04:06:10;0.00;0.00;0.00;0.00;0.00;0.00;0.00;0.00;0.00;0.31
78734;SPS30;68057;52.126;5.426;2023-11-19T04:08:37;0.00;0.00;0.00;0.00;0.00;0.00;0.00;0.00;0.00;0.31
78734;SPS30;68057;52.126;5.426;2023-11-19T04:11:04;0.00;0.00;0.00;0.00;0.00;0.00;0.00;0.00;0.00;0.31
78734;SPS30;68057;52.126;5.426;2023-11-19T04:13:31;0.00;0.00;0.00;0.00;0.00;0.00;0.00;0.00;0.00;0.31
78734;SPS30;68057;52.126;5.426;2023-11-19T04:15:59;0.00;0.00;0.00;0.00;0.00;0.00;0.00;0.00;0.00;0.31
78734;SPS30;68057;52.126;5.426;2023-11-19T04:18:26;0.00;0.00;0.00;0.00;0.00;0.00;0.00;0.00;0.00;0.31
78734;SPS30;68057;52.126;5.426;2023-11-19T04:20:53;0.00;0.00;0.00;0.00;0.00;0.00;0.00;0.00;0.00;0.31
78734;SPS30;68057;52.126;5.426;2023-11-19T04:23:20;2.89;2.89;2.89;2.73;21.81;21.81;21.80;21.72;18.88;0.32
78734;SPS30;68057;52.126;5.426;2023-11-19T04:25:47;0.00;0.00;0.00;0.00;0.00;0.00;0.00;0.00;0.00;0.32
78734;SPS30;68057;52.126;5.426;2023-11-19T04:28:13;0.00;0.00;0.00;0.00;0.00;0.00;0.00;0.00;0.00;0.32
78734;SPS30;68057;52.126;5.426;2023-11-19T04:30:41;0.00;0.00;0.00;0.00;0.00;0.00;0.00;0.00;0.00;0.32
78734;SPS30;68057;52.126;5.426;2023-11-19T04:33:08;0.00;0.00;0.00;0.00;0.00;0.00;0.00;0.00;0.00;0.32
78734;SPS30;68057;52.126;5.426;2023-11-19T04:35:34;0.00;0.00;0.00;0.00;0.00;0.00;0.00;0.00;0.00;0.32
78734;SPS30;68057;52.126;5.426;2023-11-19T04:38:01;0.00;0.00;0.00;0.00;0.00;0.00;0.00;0.00;0.00;0.32
78734;SPS30;68057;52.126;5.426;2023-11-19T04:40:27;0.00;0.00;0.00;0.00;0.00;0.00;0.00;0.00;0.00;0.32
78734;SPS30;68057;52.126;5.426;2023-11-19T04:42:54;0.00;0.00;0.00;0.00;0.00;0.00;0.00;0.00;0.00;0.32
78734;SPS30;68057;52.126;5.426;2023-11-19T04:45:21;0.00;0.00;0.00;0.00;0.00;0.00;0.00;0.00;0.00;0.32
78734;SPS30;68057;52.126;5.426;2023-11-19T04:47:48;0.00;0.00;0.00;0.00;0.00;0.00;0.00;0.00;0.00;0.32
78734;SPS30;68057;52.126;5.426;2023-11-19T04:50:15;0.00;0.00;0.00;0.00;0.00;0.00;0.00;0.00;0.00;0.32
78734;SPS30;68057;52.126;5.426;2023-11-19T04:52:41;0.00;0.00;0.00;0.00;0.00;0.00;0.00;0.00;0.00;0.32
78734;SPS30;68057;52.126;5.426;2023-11-19T04:55:12;0.00;0.00;0.00;0.00;0.00;0.00;0.00;0.00;0.00;0.32
78734;SPS30;68057;52.126;5.426;2023-11-19T04:57:41;0.00;0.00;0.00;0.00;0.00;0.00;0.00;0.00;0.00;0.32
78734;SPS30;68057;52.126;5.426;2023-11-19T05:00:07;0.00;0.00;0.00;0.00;0.00;0.00;0.00;0.00;0.00;0.32
78734;SPS30;68057;52.126;5.426;2023-11-19T05:02:37;0.00;0.00;0.00;0.00;0.00;0.00;0.00;0.00;0.00;0.32
78734;SPS30;68057;52.126;5.426;2023-11-19T05:05:04;0.00;0.00;0.00;0.00;0.00;0.00;0.00;0.00;0.00;0.32
78734;SPS30;68057;52.126;5.426;2023-11-19T05:07:32;0.00;0.00;0.00;0.00;0.00;0.00;0.00;0.00;0.00;0.32
78734;SPS30;68057;52.126;5.426;2023-11-19T05:09:58;0.00;0.00;0.00;0.00;0.00;0.00;0.00;0.00;0.00;0.32
78734;SPS30;68057;52.126;5.426;2023-11-19T05:12:25;0.00;0.00;0.00;0.00;0.00;0.00;0.00;0.00;0.00;0.32
78734;SPS30;68057;52.126;5.426;2023-11-19T05:14:52;0.00;0.00;0.00;0.00;0.00;0.00;0.00;0.00;0.00;0.32
78734;SPS30;68057;52.126;5.426;2023-11-19T05:17:19;0.00;0.00;0.00;0.00;0.00;0.00;0.00;0.00;0.00;0.32
78734;SPS30;68057;52.126;5.426;2023-11-19T05:19:46;0.00;0.00;0.00;0.00;0.00;0.00;0.00;0.00;0.00;0.32
78734;SPS30;68057;52.126;5.426;2023-11-19T05:22:14;0.00;0.00;0.00;0.00;0.00;0.00;0.00;0.00;0.00;0.32
78734;SPS30;68057;52.126;5.426;2023-11-19T05:24:40;0.00;0.00;0.00;0.00;0.00;0.00;0.00;0.00;0.00;0.32
78734;SPS30;68057;52.126;5.426;2023-11-19T05:27:07;0.00;0.00;0.00;0.00;0.00;0.00;0.00;0.00;0.00;0.32
78734;SPS30;68057;52.126;5.426;2023-11-19T05:29:34;0.00;0.00;0.00;0.00;0.00;0.00;0.00;0.00;0.00;0.32
78734;SPS30;68057;52.126;5.426;2023-11-19T05:32:01;0.00;0.00;0.00;0.00;0.00;0.00;0.00;0.00;0.00;0.32
78734;SPS30;68057;52.126;5.426;2023-11-19T05:34:27;0.00;0.00;0.00;0.00;0.00;0.00;0.00;0.00;0.00;0.32
78734;SPS30;68057;52.126;5.426;2023-11-19T05:36:55;0.00;0.00;0.00;0.00;0.00;0.00;0.00;0.00;0.00;0.32
78734;SPS30;68057;52.126;5.426;2023-11-19T05:39:22;0.00;0.00;0.00;0.00;0.00;0.00;0.00;0.00;0.00;0.32
78734;SPS30;68057;52.126;5.426;2023-11-19T05:41:48;0.00;0.00;0.00;0.00;0.00;0.00;0.00;0.00;0.00;0.32
78734;SPS30;68057;52.126;5.426;2023-11-19T05:44:15;0.00;0.00;0.00;0.00;0.00;0.00;0.00;0.00;0.00;0.32
78734;SPS30;68057;52.126;5.426;2023-11-19T05:46:43;0.00;0.00;0.00;0.00;0.00;0.00;0.00;0.00;0.00;0.32
78734;SPS30;68057;52.126;5.426;2023-11-19T05:49:10;0.00;0.00;0.00;0.00;0.00;0.00;0.00;0.00;0.00;0.32
78734;SPS30;68057;52.126;5.426;2023-11-19T05:51:39;0.00;0.00;0.00;0.00;0.00;0.00;0.00;0.00;0.00;0.32
78734;SPS30;68057;52.126;5.426;2023-11-19T05:54:09;0.00;0.00;0.00;0.00;0.00;0.00;0.00;0.00;0.00;0.32
78734;SPS30;68057;52.126;5.426;2023-11-19T05:56:37;0.00;0.00;0.00;0.00;0.00;0.00;0.00;0.00;0.00;0.32
78734;SPS30;68057;52.126;5.426;2023-11-19T05:59:04;0.00;0.00;0.00;0.00;0.00;0.00;0.00;0.00;0.00;0.32
78734;SPS30;68057;52.126;5.426;2023-11-19T06:01:34;0.00;0.00;0.00;0.00;0.00;0.00;0.00;0.00;0.00;0.32
78734;SPS30;68057;52.126;5.426;2023-11-19T06:04:01;0.00;0.00;0.00;0.00;0.00;0.00;0.00;0.00;0.00;0.32
78734;SPS30;68057;52.126;5.426;2023-11-19T06:06:28;0.00;0.00;0.00;0.00;0.00;0.00;0.00;0.00;0.00;0.32
78734;SPS30;68057;52.126;5.426;2023-11-19T06:08:55;0.00;0.00;0.00;0.00;0.00;0.00;0.00;0.00;0.00;0.32
78734;SPS30;68057;52.126;5.426;2023-11-19T06:11:21;0.00;0.00;0.00;0.00;0.00;0.00;0.00;0.00;0.00;0.32
78734;SPS30;68057;52.126;5.426;2023-11-19T06:13:48;0.00;0.00;0.00;0.00;0.00;0.00;0.00;0.00;0.00;0.32
78734;SPS30;68057;52.126;5.426;2023-11-19T06:16:16;0.00;0.00;0.00;0.00;0.00;0.00;0.00;0.00;0.00;0.32
78734;SPS30;68057;52.126;5.426;2023-11-19T06:18:43;0.00;0.00;0.00;0.00;0.00;0.00;0.00;0.00;0.00;0.32
78734;SPS30;68057;52.126;5.426;2023-11-19T06:21:10;0.00;0.00;0.00;0.00;0.00;0.00;0.00;0.00;0.00;0.32
78734;SPS30;68057;52.126;5.426;2023-11-19T06:23:38;0.00;0.00;0.00;0.00;0.00;0.00;0.00;0.00;0.00;0.32
78734;SPS30;68057;52.126;5.426;2023-11-19T06:26:05;0.00;0.00;0.00;0.00;0.00;0.00;0.00;0.00;0.00;0.32
78734;SPS30;68057;52.126;5.426;2023-11-19T06:28:31;0.00;0.00;0.00;0.00;0.00;0.00;0.00;0.00;0.00;0.32
78734;SPS30;68057;52.126;5.426;2023-11-19T06:30:58;0.00;0.00;0.00;0.00;0.00;0.00;0.00;0.00;0.00;0.32
78734;SPS30;68057;52.126;5.426;2023-11-19T06:33:25;0.00;0.00;0.00;0.00;0.00;0.00;0.00;0.00;0.00;0.32
78734;SPS30;68057;52.126;5.426;2023-11-19T06:35:52;0.00;0.00;0.00;0.00;0.00;0.00;0.00;0.00;0.00;0.32
78734;SPS30;68057;52.126;5.426;2023-11-19T06:38:19;0.00;0.00;0.00;0.00;0.00;0.00;0.00;0.00;0.00;0.32
78734;SPS30;68057;52.126;5.426;2023-11-19T06:40:45;0.00;0.00;0.00;0.00;0.00;0.00;0.00;0.00;0.00;0.32
78734;SPS30;68057;52.126;5.426;2023-11-19T06:43:12;0.00;0.00;0.00;0.00;0.00;0.00;0.00;0.00;0.00;0.32
78734;SPS30;68057;52.126;5.426;2023-11-19T06:45:40;0.00;0.00;0.00;0.00;0.00;0.00;0.00;0.00;0.00;0.32
78734;SPS30;68057;52.126;5.426;2023-11-19T06:48:07;0.00;0.00;0.00;0.00;0.00;0.00;0.00;0.00;0.00;0.32
78734;SPS30;68057;52.126;5.426;2023-11-19T06:50:33;0.00;0.00;0.00;0.00;0.00;0.00;0.00;0.00;0.00;0.32
78734;SPS30;68057;52.126;5.426;2023-11-19T06:53:00;0.00;0.00;0.00;0.00;0.00;0.00;0.00;0.00;0.00;0.32
78734;SPS30;68057;52.126;5.426;2023-11-19T06:55:27;0.00;0.00;0.00;0.00;0.00;0.00;0.00;0.00;0.00;0.32
78734;SPS30;68057;52.126;5.426;2023-11-19T06:57:54;0.00;0.00;0.00;0.00;0.00;0.00;0.00;0.00;0.00;0.32
78734;SPS30;68057;52.126;5.426;2023-11-19T07:00:20;0.00;0.00;0.00;0.00;0.00;0.00;0.00;0.00;0.00;0.32
78734;SPS30;68057;52.126;5.426;2023-11-19T07:02:48;0.00;0.00;0.00;0.00;0.00;0.00;0.00;0.00;0.00;0.32
78734;SPS30;68057;52.126;5.426;2023-11-19T07:05:16;0.00;0.00;0.00;0.00;0.00;0.00;0.00;0.00;0.00;0.32
78734;SPS30;68057;52.126;5.426;2023-11-19T07:07:43;0.00;0.00;0.00;0.00;0.00;0.00;0.00;0.00;0.00;0.32
78734;SPS30;68057;52.126;5.426;2023-11-19T07:10:09;0.00;0.00;0.00;0.00;0.00;0.00;0.00;0.00;0.00;0.32
78734;SPS30;68057;52.126;5.426;2023-11-19T07:12:36;0.00;0.00;0.00;0.00;0.00;0.00;0.00;0.00;0.00;0.32
78734;SPS30;68057;52.126;5.426;2023-11-19T07:15:04;0.00;0.00;0.00;0.00;0.00;0.00;0.00;0.00;0.00;0.32
78734;SPS30;68057;52.126;5.426;2023-11-19T07:17:31;0.00;0.00;0.00;0.00;0.00;0.00;0.00;0.00;0.00;0.32
78734;SPS30;68057;52.126;5.426;2023-11-19T07:19:58;0.00;0.00;0.00;0.00;0.00;0.00;0.00;0.00;0.00;0.32
78734;SPS30;68057;52.126;5.426;2023-11-19T07:22:26;0.00;0.00;0.00;0.00;0.00;0.00;0.00;0.00;0.00;0.32
78734;SPS30;68057;52.126;5.426;2023-11-19T07:24:53;0.00;0.00;0.00;0.00;0.00;0.00;0.00;0.00;0.00;0.32
78734;SPS30;68057;52.126;5.426;2023-11-19T07:27:19;0.00;0.00;0.00;0.00;0.00;0.00;0.00;0.00;0.00;0.32
78734;SPS30;68057;52.126;5.426;2023-11-19T07:29:46;0.00;0.00;0.00;0.00;0.00;0.00;0.00;0.00;0.00;0.32
78734;SPS30;68057;52.126;5.426;2023-11-19T07:32:13;0.00;0.00;0.00;0.00;0.00;0.00;0.00;0.00;0.00;0.32
78734;SPS30;68057;52.126;5.426;2023-11-19T07:34:40;0.00;0.00;0.00;0.00;0.00;0.00;0.00;0.00;0.00;0.32
78734;SPS30;68057;52.126;5.426;2023-11-19T07:37:06;0.00;0.00;0.00;0.00;0.00;0.00;0.00;0.00;0.00;0.32
78734;SPS30;68057;52.126;5.426;2023-11-19T07:39:33;0.00;0.00;0.00;0.00;0.00;0.00;0.00;0.00;0.00;0.32
78734;SPS30;68057;52.126;5.426;2023-11-19T07:42:01;0.00;0.00;0.00;0.00;0.00;0.00;0.00;0.00;0.00;0.32
78734;SPS30;68057;52.126;5.426;2023-11-19T07:44:28;0.00;0.00;0.00;0.00;0.00;0.00;0.00;0.00;0.00;0.32
78734;SPS30;68057;52.126;5.426;2023-11-19T07:46:55;0.00;0.00;0.00;0.00;0.00;0.00;0.00;0.00;0.00;0.32
78734;SPS30;68057;52.126;5.426;2023-11-19T07:49:21;0.00;0.00;0.00;0.00;0.00;0.00;0.00;0.00;0.00;0.32
78734;SPS30;68057;52.126;5.426;2023-11-19T07:51:48;0.00;0.00;0.00;0.00;0.00;0.00;0.00;0.00;0.00;0.32
78734;SPS30;68057;52.126;5.426;2023-11-19T07:54:14;0.00;0.00;0.00;0.00;0.00;0.00;0.00;0.00;0.00;0.32
78734;SPS30;68057;52.126;5.426;2023-11-19T07:56:41;0.00;0.00;0.00;0.00;0.00;0.00;0.00;0.00;0.00;0.32
78734;SPS30;68057;52.126;5.426;2023-11-19T07:59:08;0.00;0.00;0.00;0.00;0.00;0.00;0.00;0.00;0.00;0.32
78734;SPS30;68057;52.126;5.426;2023-11-19T08:01:35;0.00;0.00;0.00;0.00;0.00;0.00;0.00;0.00;0.00;0.32
78734;SPS30;68057;52.126;5.426;2023-11-19T08:04:01;0.00;0.00;0.00;0.00;0.00;0.00;0.00;0.00;0.00;0.32
78734;SPS30;68057;52.126;5.426;2023-11-19T08:06:28;0.00;0.00;0.00;0.00;0.00;0.00;0.00;0.00;0.00;0.32
78734;SPS30;68057;52.126;5.426;2023-11-19T08:08:55;0.00;0.00;0.00;0.00;0.00;0.00;0.00;0.00;0.00;0.32
78734;SPS30;68057;52.126;5.426;2023-11-19T08:11:22;0.00;0.00;0.00;0.00;0.00;0.00;0.00;0.00;0.00;0.32
78734;SPS30;68057;52.126;5.426;2023-11-19T08:13:49;0.00;0.00;0.00;0.00;0.00;0.00;0.00;0.00;0.00;0.32
78734;SPS30;68057;52.126;5.426;2023-11-19T08:16:15;0.00;0.00;0.00;0.00;0.00;0.00;0.00;0.00;0.00;0.32
78734;SPS30;68057;52.126;5.426;2023-11-19T08:18:43;0.00;0.00;0.00;0.00;0.00;0.00;0.00;0.00;0.00;0.32
78734;SPS30;68057;52.126;5.426;2023-11-19T08:21:10;72.27;72.27;72.27;68.34;545.63;545.53;545.41;543.40;472.41;0.32
78734;SPS30;68057;52.126;5.426;2023-11-19T08:23:37;2.96;2.95;2.91;2.72;21.71;21.71;21.69;21.57;18.69;0.49
78734;SPS30;68057;52.126;5.426;2023-11-19T08:26:05;0.00;0.00;0.00;0.00;0.00;0.00;0.00;0.00;0.00;0.51
78734;SPS30;68057;52.126;5.426;2023-11-19T08:28:33;0.00;0.00;0.00;0.00;0.00;0.00;0.00;0.00;0.00;0.51
78734;SPS30;68057;52.126;5.426;2023-11-19T08:31:01;0.00;0.00;0.00;0.00;0.00;0.00;0.00;0.00;0.00;0.51
78734;SPS30;68057;52.126;5.426;2023-11-19T08:33:32;0.00;0.00;0.00;0.00;0.00;0.00;0.00;0.00;0.00;0.51
78734;SPS30;68057;52.126;5.426;2023-11-19T08:35:58;0.00;0.00;0.00;0.00;0.00;0.00;0.00;0.00;0.00;0.51
78734;SPS30;68057;52.126;5.426;2023-11-19T08:38:26;0.00;0.00;0.00;0.00;0.00;0.00;0.00;0.00;0.00;0.51
78734;SPS30;68057;52.126;5.426;2023-11-19T08:40:55;0.00;0.00;0.00;0.00;0.00;0.00;0.00;0.00;0.00;0.51
78734;SPS30;68057;52.126;5.426;2023-11-19T08:43:27;0.00;0.00;0.00;0.00;0.00;0.00;0.00;0.00;0.00;0.51
78734;SPS30;68057;52.126;5.426;2023-11-19T08:45:53;0.00;0.00;0.00;0.00;0.00;0.00;0.00;0.00;0.00;0.51
78734;SPS30;68057;52.126;5.426;2023-11-19T08:48:20;0.00;0.00;0.00;0.00;0.00;0.00;0.00;0.00;0.00;0.51
78734;SPS30;68057;52.126;5.426;2023-11-19T08:50:47;0.00;0.00;0.00;0.00;0.00;0.00;0.00;0.00;0.00;0.51
78734;SPS30;68057;52.126;5.426;2023-11-19T08:53:14;0.00;0.00;0.00;0.00;0.00;0.00;0.00;0.00;0.00;0.51
78734;SPS30;68057;52.126;5.426;2023-11-19T08:55:41;0.00;0.00;0.00;0.00;0.00;0.00;0.00;0.00;0.00;0.51
78734;SPS30;68057;52.126;5.426;2023-11-19T08:58:08;0.00;0.00;0.00;0.00;0.00;0.00;0.00;0.00;0.00;0.51
78734;SPS30;68057;52.126;5.426;2023-11-19T09:00:35;0.00;0.00;0.00;0.00;0.00;0.00;0.00;0.00;0.00;0.51
78734;SPS30;68057;52.126;5.426;2023-11-19T09:03:02;0.00;0.00;0.00;0.00;0.00;0.00;0.00;0.00;0.00;0.51
78734;SPS30;68057;52.126;5.426;2023-11-19T09:05:30;0.00;0.00;0.00;0.00;0.00;0.00;0.00;0.00;0.00;0.51
78734;SPS30;68057;52.126;5.426;2023-11-19T09:07:56;0.00;0.00;0.00;0.00;0.00;0.00;0.00;0.00;0.00;0.51
78734;SPS30;68057;52.126;5.426;2023-11-19T09:10:23;0.00;0.00;0.00;0.00;0.00;0.00;0.00;0.00;0.00;0.51
78734;SPS30;68057;52.126;5.426;2023-11-19T09:12:49;0.00;0.00;0.00;0.00;0.00;0.00;0.00;0.00;0.00;0.51
78734;SPS30;68057;52.126;5.426;2023-11-19T09:15:16;0.00;0.00;0.00;0.00;0.00;0.00;0.00;0.00;0.00;0.51
78734;SPS30;68057;52.126;5.426;2023-11-19T09:17:43;0.00;0.00;0.00;0.00;0.00;0.00;0.00;0.00;0.00;0.51
78734;SPS30;68057;52.126;5.426;2023-11-19T09:20:10;0.00;0.00;0.00;0.00;0.00;0.00;0.00;0.00;0.00;0.51
78734;SPS30;68057;52.126;5.426;2023-11-19T09:22:39;0.00;0.00;0.00;0.00;0.00;0.00;0.00;0.00;0.00;0.51
78734;SPS30;68057;52.126;5.426;2023-11-19T09:25:05;0.00;0.00;0.00;0.00;0.00;0.00;0.00;0.00;0.00;0.51
78734;SPS30;68057;52.126;5.426;2023-11-19T09:27:32;0.00;0.00;0.00;0.00;0.00;0.00;0.00;0.00;0.00;0.51
78734;SPS30;68057;52.126;5.426;2023-11-19T09:29:59;0.00;0.00;0.00;0.00;0.00;0.00;0.00;0.00;0.00;0.51
78734;SPS30;68057;52.126;5.426;2023-11-19T09:32:26;0.00;0.00;0.00;0.00;0.00;0.00;0.00;0.00;0.00;0.51
78734;SPS30;68057;52.126;5.426;2023-11-19T09:34:53;0.00;0.00;0.00;0.00;0.00;0.00;0.00;0.00;0.00;0.51
78734;SPS30;68057;52.126;5.426;2023-11-19T09:37:19;0.00;0.00;0.00;0.00;0.00;0.00;0.00;0.00;0.00;0.51